createdAt,value
2022-11-04T00:02:02.465Z,96390.72
2022-11-04T00:04:29.151Z,96397.53
2022-11-04T00:06:56.244Z,96430.88
2022-11-04T00:09:24.232Z,96424.00
2022-11-04T00:12:09.666Z,96428.31
2022-11-04T00:14:36.356Z,96421.47
2022-11-04T00:17:22.060Z,96423.19
2022-11-04T00:20:11.276Z,96422.38
2022-11-04T00:22:56.664Z,96417.25
2022-11-04T00:28:43.342Z,96431.75
2022-11-04T00:31:28.410Z,96433.44
2022-11-04T00:33:56.150Z,96448.78
2022-11-04T00:36:23.720Z,96454.75
2022-11-04T00:38:50.305Z,96461.56
2022-11-04T00:41:30.672Z,96454.72
2022-11-04T00:44:02.800Z,96461.53
2022-11-04T00:46:30.119Z,96459.78
2022-11-04T00:48:56.760Z,96463.25
2022-11-04T00:51:23.322Z,96470.91
2022-11-04T00:53:49.951Z,96482.91
2022-11-04T00:56:16.807Z,96493.13
2022-11-04T00:58:43.318Z,96502.50
2022-11-04T01:01:10.568Z,96495.69
2022-11-04T01:03:37.182Z,96505.94
2022-11-04T01:06:03.889Z,96522.16
2022-11-04T01:08:30.463Z,96510.09
2022-11-04T01:10:56.937Z,96516.97
2022-11-04T01:13:23.413Z,96535.78
2022-11-04T01:15:49.908Z,96534.94
2022-11-04T01:18:16.373Z,96534.09
2022-11-04T01:20:42.879Z,96534.94
2022-11-04T01:23:09.375Z,96529.81
2022-11-04T01:25:40.382Z,96536.66
2022-11-04T01:28:07.552Z,96531.50
2022-11-04T01:30:34.365Z,96534.94
2022-11-04T01:33:00.838Z,96540.06
2022-11-04T01:35:27.348Z,96538.34
2022-11-04T01:37:53.902Z,96531.53
2022-11-04T01:40:20.386Z,96532.41
2022-11-04T01:42:46.866Z,96522.13
2022-11-04T01:45:14.661Z,96529.84
2022-11-04T01:47:43.523Z,96524.66
2022-11-04T01:50:13.094Z,96544.31
2022-11-04T01:52:48.751Z,96549.44
2022-11-04T01:55:23.954Z,96538.34
2022-11-04T01:57:50.631Z,96538.34
2022-11-04T02:00:17.481Z,96534.03
2022-11-04T02:03:17.694Z,96530.66
2022-11-04T02:05:44.219Z,96520.38
2022-11-04T02:08:10.711Z,96522.97
2022-11-04T02:10:37.636Z,96529.84
2022-11-04T02:13:04.441Z,96522.13
2022-11-04T02:15:35.882Z,96523.00
2022-11-04T02:18:37.639Z,96523.84
2022-11-04T02:21:12.848Z,96524.72
2022-11-04T02:23:48.390Z,96530.66
2022-11-04T02:26:51.371Z,96525.53
2022-11-04T02:29:32.827Z,96524.72
2022-11-04T02:32:11.558Z,96529.84
2022-11-04T02:34:58.669Z,96523.84
2022-11-04T02:37:30.631Z,96524.72
2022-11-04T02:40:44.612Z,96525.56
2022-11-04T02:43:38.612Z,96523.84
2022-11-04T02:46:11.697Z,96529.84
2022-11-04T02:48:57.474Z,96526.38
2022-11-04T02:51:46.170Z,96534.09
2022-11-04T02:54:24.763Z,96537.50
2022-11-04T02:56:51.452Z,96534.94
2022-11-04T02:59:31.762Z,96523.78
2022-11-04T03:01:58.821Z,96529.84
2022-11-04T03:04:30.304Z,96532.41
2022-11-04T03:06:57.243Z,96530.63
2022-11-04T03:09:23.830Z,96520.38
2022-11-04T03:11:52.752Z,96523.84
2022-11-04T03:14:21.037Z,96510.94
2022-11-04T03:16:50.209Z,96533.22
2022-11-04T03:19:40.567Z,96528.97
2022-11-04T03:22:12.859Z,96487.78
2022-11-04T03:24:39.580Z,96528.97
2022-11-04T03:27:12.719Z,96510.94
2022-11-04T03:30:04.638Z,96534.94
2022-11-04T03:32:40.217Z,96537.50
2022-11-04T03:35:06.746Z,96539.19
2022-11-04T03:37:33.469Z,96534.91
2022-11-04T03:39:59.978Z,96538.34
2022-11-04T03:42:26.576Z,96545.19
2022-11-04T03:44:54.153Z,96536.63
2022-11-04T03:47:23.133Z,96529.81
2022-11-04T03:49:49.678Z,96526.41
2022-11-04T03:52:16.210Z,96533.22
2022-11-04T03:54:42.725Z,96534.94
2022-11-04T03:57:21.595Z,96530.66
2022-11-04T03:59:56.963Z,96543.44
2022-11-04T04:02:35.279Z,96528.00
2022-11-04T04:05:19.851Z,96545.19
2022-11-04T04:08:03.071Z,96539.19
2022-11-04T04:10:42.637Z,96540.06
2022-11-04T04:13:47.447Z,96546.00
2022-11-04T04:16:23.262Z,96542.63
2022-11-04T04:18:55.795Z,96538.34
2022-11-04T04:21:29.978Z,96549.44
2022-11-04T04:24:15.091Z,96528.88
2022-11-04T04:27:00.050Z,96516.03
2022-11-04T04:29:26.564Z,96525.53
2022-11-04T04:31:57.618Z,96526.41
2022-11-04T04:34:30.366Z,96506.75
2022-11-04T04:37:21.138Z,96514.44
2022-11-04T04:40:14.299Z,96503.38
2022-11-04T04:42:59.349Z,96505.94
2022-11-04T04:45:32.157Z,96493.03
2022-11-04T04:47:58.745Z,96516.16
2022-11-04T04:50:28.474Z,96526.41
2022-11-04T04:52:55.171Z,96504.97
2022-11-04T04:55:21.664Z,96519.59
2022-11-04T04:57:48.161Z,96517.03
2022-11-04T05:00:16.932Z,96506.81
2022-11-04T05:02:43.748Z,96508.50
2022-11-04T05:05:10.790Z,96481.88
2022-11-04T05:07:37.367Z,96504.25
2022-11-04T05:10:04.048Z,96499.09
2022-11-04T05:12:50.483Z,96511.91
2022-11-04T05:15:17.162Z,96511.91
2022-11-04T05:17:43.637Z,96504.22
2022-11-04T05:20:10.902Z,96505.91
2022-11-04T05:22:37.478Z,96507.63
2022-11-04T05:25:04.260Z,96505.91
2022-11-04T05:27:30.739Z,96522.16
2022-11-04T05:29:57.309Z,96527.25
2022-11-04T05:32:23.824Z,96557.97
2022-11-04T05:34:50.289Z,96535.75
2022-11-04T05:37:16.794Z,96537.50
2022-11-04T05:39:43.290Z,96550.31
2022-11-04T05:42:09.778Z,96567.38
2022-11-04T05:44:36.286Z,96563.09
2022-11-04T05:47:02.829Z,96573.34
2022-11-04T05:49:29.314Z,96566.47
2022-11-04T05:51:55.796Z,96588.72
2022-11-04T05:54:22.374Z,96572.50
2022-11-04T05:56:48.853Z,96571.63
2022-11-04T05:59:15.353Z,96569.94
2022-11-04T06:01:42.836Z,96577.63
2022-11-04T06:04:14.197Z,96581.03
2022-11-04T06:06:40.783Z,96581.84
2022-11-04T06:09:07.610Z,96586.13
2022-11-04T06:11:34.224Z,96577.59
2022-11-04T06:14:00.996Z,96572.47
2022-11-04T06:16:27.621Z,96561.34
2022-11-04T06:18:54.165Z,96546.88
2022-11-04T06:21:30.989Z,96575.91
2022-11-04T06:23:57.989Z,96577.53
2022-11-04T06:26:28.899Z,96586.13
2022-11-04T06:28:55.685Z,96572.44
2022-11-04T06:31:22.287Z,96567.34
2022-11-04T06:33:48.812Z,96566.47
2022-11-04T06:36:15.887Z,96589.50
2022-11-04T06:38:42.405Z,96592.91
2022-11-04T06:41:12.292Z,96586.94
2022-11-04T06:43:38.855Z,96573.28
2022-11-04T06:46:05.660Z,96581.00
2022-11-04T06:48:32.388Z,96575.00
2022-11-04T06:50:59.468Z,96571.59
2022-11-04T06:53:26.611Z,96567.34
2022-11-04T06:55:53.367Z,96577.56
2022-11-04T06:58:19.925Z,96569.91
2022-11-04T07:00:53.557Z,96564.78
2022-11-04T07:03:20.212Z,96561.34
2022-11-04T07:05:46.687Z,96552.84
2022-11-04T07:08:13.167Z,96557.09
2022-11-04T07:10:39.653Z,96567.34
2022-11-04T07:13:06.126Z,96558.72
2022-11-04T07:15:33.381Z,96563.91
2022-11-04T07:18:00.108Z,96557.03
2022-11-04T07:20:26.645Z,96567.34
2022-11-04T07:22:54.469Z,96534.81
2022-11-04T07:25:22.006Z,96547.72
2022-11-04T07:27:48.514Z,96550.31
2022-11-04T07:30:15.036Z,96541.75
2022-11-04T07:32:41.548Z,96541.75
2022-11-04T07:35:08.414Z,96551.16
2022-11-04T07:37:34.900Z,96569.94
2022-11-04T07:40:01.374Z,96575.88
2022-11-04T07:42:27.873Z,96588.72
2022-11-04T07:44:54.355Z,96586.13
2022-11-04T07:47:20.993Z,96578.41
2022-11-04T07:49:47.906Z,96577.59
2022-11-04T07:52:14.451Z,96594.69
2022-11-04T07:54:40.943Z,96602.31
2022-11-04T07:57:07.441Z,96617.75
2022-11-04T07:59:33.906Z,96621.16
2022-11-04T08:02:00.457Z,96634.84
2022-11-04T08:04:27.202Z,96640.78
2022-11-04T08:06:53.926Z,96642.47
2022-11-04T08:09:20.626Z,96648.50
2022-11-04T08:11:47.158Z,96641.66
2022-11-04T08:14:13.670Z,96639.97
2022-11-04T08:16:40.522Z,96633.97
2022-11-04T08:19:07.005Z,96635.69
2022-11-04T08:21:33.667Z,96634.88
2022-11-04T08:24:00.351Z,96644.25
2022-11-04T08:26:26.893Z,96643.41
2022-11-04T08:28:53.632Z,96655.38
2022-11-04T08:31:25.296Z,96657.06
2022-11-04T08:33:52.509Z,96658.75
2022-11-04T08:36:27.194Z,96657.94
2022-11-04T08:38:53.879Z,96651.97
2022-11-04T08:41:22.580Z,96644.28
2022-11-04T08:43:49.054Z,96640.84
2022-11-04T08:46:15.586Z,96629.78
2022-11-04T08:48:42.278Z,96636.63
2022-11-04T08:51:14.350Z,96633.19
2022-11-04T08:53:40.857Z,96632.38
2022-11-04T08:56:16.387Z,96616.16
2022-11-04T08:58:42.923Z,96603.34
2022-11-04T09:01:10.831Z,96591.38
2022-11-04T09:03:38.675Z,96604.22
2022-11-04T09:06:06.782Z,96599.94
2022-11-04T09:08:33.262Z,96593.09
2022-11-04T09:10:59.752Z,96597.38
2022-11-04T09:13:26.224Z,96600.78
2022-11-04T09:15:52.837Z,96594.81
2022-11-04T09:18:19.374Z,96602.47
2022-11-04T09:20:45.884Z,96599.09
2022-11-04T09:23:12.611Z,96597.34
2022-11-04T09:25:39.289Z,96593.97
2022-11-04T09:28:05.792Z,96599.91
2022-11-04T09:30:32.691Z,96595.66
2022-11-04T09:32:59.255Z,96583.69
2022-11-04T09:35:27.528Z,96587.94
2022-11-04T09:37:54.276Z,96598.22
2022-11-04T09:40:23.427Z,96602.47
2022-11-04T09:43:08.127Z,96590.53
2022-11-04T09:45:34.950Z,96585.44
2022-11-04T09:48:06.176Z,96581.16
2022-11-04T09:50:41.300Z,96577.72
2022-11-04T09:53:17.751Z,96570.03
2022-11-04T09:56:03.566Z,96576.88
2022-11-04T09:58:33.655Z,96583.72
2022-11-04T10:01:18.131Z,96585.41
2022-11-04T10:04:06.539Z,96587.13
2022-11-04T10:06:35.711Z,96588.84
2022-11-04T10:09:32.626Z,96590.53
2022-11-04T10:12:43.882Z,96592.22
2022-11-04T10:15:16.272Z,96592.19
2022-11-04T10:18:19.527Z,96578.47
2022-11-04T10:20:54.826Z,96593.94
2022-11-04T10:23:21.270Z,96599.06
2022-11-04T10:26:02.071Z,96602.47
2022-11-04T10:28:33.327Z,96585.31
2022-11-04T10:31:00.007Z,96595.66
2022-11-04T10:33:33.021Z,96572.50
2022-11-04T10:36:13.046Z,96564.00
2022-11-04T10:38:41.258Z,96567.47
2022-11-04T10:41:26.425Z,96564.91
2022-11-04T10:43:56.407Z,96563.22
2022-11-04T10:46:41.498Z,96568.34
2022-11-04T10:49:26.192Z,96585.38
2022-11-04T10:51:54.078Z,96579.41
2022-11-04T10:54:20.776Z,96555.50
2022-11-04T10:56:50.994Z,96561.50
2022-11-04T10:59:50.004Z,96572.59
2022-11-04T11:02:16.639Z,96556.34
2022-11-04T11:04:47.719Z,96554.69
2022-11-04T11:07:18.960Z,96547.81
2022-11-04T11:09:53.408Z,96543.56
2022-11-04T11:12:50.074Z,96545.28
2022-11-04T11:15:27.398Z,96551.25
2022-11-04T11:18:00.084Z,96536.75
2022-11-04T11:20:27.263Z,96543.59
2022-11-04T11:22:54.796Z,96414.88
2022-11-04T11:25:28.282Z,96521.38
2022-11-04T11:27:56.862Z,96504.22
2022-11-04T11:30:32.083Z,96517.09
2022-11-04T11:33:07.067Z,96507.63
2022-11-04T11:35:42.221Z,96510.28
2022-11-04T11:38:23.391Z,96511.16
2022-11-04T11:41:22.752Z,96522.25
2022-11-04T11:43:42.615Z,96511.94
2022-11-04T11:46:09.182Z,96523.94
2022-11-04T11:48:40.075Z,96529.91
2022-11-04T11:51:06.869Z,96536.72
2022-11-04T11:53:39.751Z,96538.41
2022-11-04T11:56:22.151Z,96550.41
2022-11-04T12:01:45.861Z,96544.34
2022-11-04T12:10:50.261Z,96558.09
2022-11-04T12:13:29.578Z,96555.50
2022-11-04T12:16:12.310Z,96560.66
2022-11-04T12:19:00.853Z,96542.56
2022-11-04T12:21:48.294Z,96554.66
2022-11-04T12:24:41.089Z,96567.47
2022-11-04T12:27:28.738Z,96570.03
2022-11-04T12:30:04.025Z,96543.44
2022-11-04T12:32:55.165Z,96560.66
2022-11-04T12:35:54.316Z,96559.78
2022-11-04T12:38:43.068Z,96550.41
2022-11-04T12:42:06.354Z,96553.00
2022-11-04T12:44:34.652Z,96553.00
2022-11-04T12:47:23.649Z,96564.06
2022-11-04T12:49:53.084Z,96561.50
2022-11-04T12:52:34.679Z,96554.69
2022-11-04T12:55:22.689Z,96558.94
2022-11-04T12:58:25.203Z,96553.75
2022-11-04T13:00:59.517Z,96561.50
2022-11-04T13:03:45.095Z,96555.53
2022-11-04T13:06:29.786Z,96548.63
2022-11-04T13:08:59.370Z,96561.50
2022-11-04T13:11:38.644Z,96564.06
2022-11-04T13:14:29.556Z,96557.25
2022-11-04T13:17:01.238Z,96565.81
2022-11-04T13:19:31.924Z,96557.25
2022-11-04T13:21:58.626Z,96558.94
2022-11-04T13:24:31.666Z,96563.25
2022-11-04T13:27:03.348Z,96565.72
2022-11-04T13:29:30.242Z,96570.88
2022-11-04T13:32:02.913Z,96593.97
2022-11-04T13:34:56.968Z,96600.78
2022-11-04T13:37:44.839Z,96605.91
2022-11-04T13:40:11.632Z,96612.72
2022-11-04T13:43:23.691Z,96617.84
2022-11-04T13:45:55.059Z,96606.78
2022-11-04T13:48:23.336Z,96606.78
2022-11-04T13:51:22.320Z,96599.94
2022-11-04T13:53:53.772Z,96598.22
2022-11-04T13:56:34.825Z,96598.22
2022-11-04T13:59:06.612Z,96561.31
2022-11-04T14:01:34.843Z,96596.53
2022-11-04T14:04:02.926Z,96588.81
2022-11-04T14:06:48.969Z,96606.75
2022-11-04T14:09:42.804Z,96597.34
2022-11-04T14:12:13.587Z,96592.25
2022-11-04T14:15:02.401Z,96602.47
2022-11-04T14:17:34.652Z,96604.22
2022-11-04T14:20:23.666Z,96601.66
2022-11-04T14:22:54.376Z,96597.34
2022-11-04T14:25:28.307Z,96590.47
2022-11-04T14:28:10.705Z,96587.91
2022-11-04T14:30:50.154Z,96611.91
2022-11-04T14:33:33.683Z,96617.84
2022-11-04T14:36:21.913Z,96611.91
2022-11-04T14:38:54.463Z,96615.28
2022-11-04T14:41:39.579Z,96616.97
2022-11-04T14:44:25.815Z,96617.84
2022-11-04T14:46:54.395Z,96609.25
2022-11-04T14:49:44.199Z,96620.41
2022-11-04T14:52:28.196Z,96620.41
2022-11-04T14:55:11.062Z,96610.09
2022-11-04T14:57:41.376Z,96610.97
2022-11-04T15:00:35.876Z,96624.69
2022-11-04T15:06:10.049Z,96620.38
2022-11-04T15:08:43.495Z,96624.69
2022-11-04T15:11:19.046Z,96635.78
2022-11-04T15:13:47.239Z,96634.94
2022-11-04T15:16:24.479Z,96637.50
2022-11-04T15:18:52.022Z,96628.94
2022-11-04T15:21:18.505Z,96638.34
2022-11-04T15:23:49.434Z,96634.94
2022-11-04T15:26:36.305Z,96640.06
2022-11-04T15:29:07.979Z,96634.94
2022-11-04T15:31:34.926Z,96631.53
2022-11-04T15:34:03.226Z,96622.00
2022-11-04T15:36:34.400Z,96629.81
2022-11-04T15:39:13.497Z,96625.38
2022-11-04T15:41:59.194Z,96650.31
2022-11-04T15:44:27.549Z,96640.81
2022-11-04T15:46:58.585Z,96656.25
2022-11-04T15:49:32.034Z,96644.25
2022-11-04T15:52:08.799Z,96656.25
2022-11-04T15:54:36.567Z,96656.25
2022-11-04T15:57:05.822Z,96659.69
2022-11-04T15:59:33.478Z,96657.09
2022-11-04T16:02:00.195Z,96665.66
2022-11-04T16:04:27.578Z,96662.25
2022-11-04T16:07:05.889Z,96664.81
2022-11-04T16:09:38.928Z,96668.28
2022-11-04T16:12:12.013Z,96662.28
2022-11-04T16:14:38.502Z,96661.44
2022-11-04T16:17:10.191Z,96662.34
2022-11-04T16:19:36.700Z,96663.19
2022-11-04T16:22:09.075Z,96651.13
2022-11-04T16:24:37.849Z,96640.84
2022-11-04T16:27:06.659Z,96664.91
2022-11-04T16:29:34.218Z,96649.50
2022-11-04T16:32:26.773Z,96652.06
2022-11-04T16:34:57.698Z,96664.06
2022-11-04T16:37:25.704Z,96659.78
2022-11-04T16:39:52.198Z,96669.19
2022-11-04T16:42:18.669Z,96668.38
2022-11-04T16:44:49.595Z,96671.75
2022-11-04T16:47:16.579Z,96682.00
2022-11-04T16:49:43.078Z,96675.19
2022-11-04T16:52:12.996Z,96687.13
2022-11-04T16:54:39.474Z,96686.31
2022-11-04T16:57:11.597Z,96694.03
2022-11-04T16:59:38.147Z,96692.34
2022-11-04T17:02:37.922Z,96688.09
2022-11-04T17:05:05.251Z,96700.88
2022-11-04T17:07:51.507Z,96705.13
2022-11-04T17:10:20.416Z,96700.00
2022-11-04T17:12:46.970Z,96698.28
2022-11-04T17:15:13.808Z,96709.38
2022-11-04T17:17:40.458Z,96706.81
2022-11-04T17:20:07.728Z,96706.81
2022-11-04T17:22:37.215Z,96704.31
2022-11-04T17:25:04.658Z,96709.38
2022-11-04T17:27:31.123Z,96705.16
2022-11-04T17:29:57.659Z,96705.16
2022-11-04T17:32:24.511Z,96707.72
2022-11-04T17:34:51.098Z,96710.28
2022-11-04T17:37:17.578Z,96717.97
2022-11-04T17:39:44.087Z,96717.03
2022-11-04T17:42:29.152Z,96733.31
2022-11-04T17:44:55.629Z,96733.31
2022-11-04T17:47:22.147Z,96740.16
2022-11-04T17:49:48.996Z,96733.25
2022-11-04T17:52:15.511Z,96735.88
2022-11-04T17:54:41.991Z,96736.69
2022-11-04T17:57:08.555Z,96747.84
2022-11-04T17:59:36.955Z,96735.75
2022-11-04T18:02:03.857Z,96743.53
2022-11-04T18:04:30.530Z,96746.13
2022-11-04T18:07:02.438Z,96752.97
2022-11-04T18:09:30.394Z,96763.22
2022-11-04T18:12:15.369Z,96764.03
2022-11-04T18:14:41.852Z,96765.78
2022-11-04T18:17:08.378Z,96770.91
2022-11-04T18:19:34.873Z,96770.06
2022-11-04T18:22:01.351Z,96774.31
2022-11-04T18:24:27.901Z,96779.44
2022-11-04T18:26:54.415Z,96781.16
2022-11-04T18:29:20.979Z,96779.44
2022-11-04T18:31:49.199Z,96774.34
2022-11-04T18:34:17.764Z,96772.63
2022-11-04T18:36:44.319Z,96775.19
2022-11-04T18:39:12.861Z,96780.31
2022-11-04T18:41:42.431Z,96766.59
2022-11-04T18:44:16.247Z,96791.44
2022-11-04T18:46:43.242Z,96791.44
2022-11-04T18:49:10.544Z,96795.69
2022-11-04T18:51:37.236Z,96808.50
2022-11-04T18:54:04.727Z,96809.34
2022-11-04T18:56:31.226Z,96809.34
2022-11-04T18:58:57.737Z,96814.47
2022-11-04T19:01:26.156Z,96816.16
2022-11-04T19:03:52.806Z,96823.84
2022-11-04T19:06:21.156Z,96828.09
2022-11-04T19:08:47.800Z,96829.81
2022-11-04T19:11:19.742Z,96834.09
2022-11-04T19:13:56.896Z,96836.53
2022-11-04T19:16:23.509Z,96846.91
2022-11-04T19:18:50.028Z,96845.19
2022-11-04T19:21:18.078Z,96851.16
2022-11-04T19:23:44.587Z,96856.28
2022-11-04T19:26:21.749Z,96857.16
2022-11-04T19:28:48.941Z,96839.06
2022-11-04T19:31:19.970Z,96860.56
2022-11-04T19:33:47.072Z,96863.13
2022-11-04T19:36:14.565Z,96870.81
2022-11-04T19:38:41.358Z,96868.25
2022-11-04T19:41:32.358Z,96865.66
2022-11-04T19:43:59.024Z,96868.25
2022-11-04T19:46:25.571Z,96870.75
2022-11-04T19:48:52.110Z,96876.75
2022-11-04T19:51:18.590Z,96890.41
2022-11-04T19:53:45.152Z,96895.53
2022-11-04T19:56:15.724Z,96895.53
2022-11-04T19:58:42.910Z,96900.63
2022-11-04T20:01:09.691Z,96901.53
2022-11-04T20:03:36.966Z,96906.69
2022-11-04T20:06:03.963Z,96897.19
2022-11-04T20:08:30.442Z,96906.66
2022-11-04T20:10:59.013Z,96904.94
2022-11-04T20:13:44.051Z,96918.59
2022-11-04T20:16:23.719Z,96907.50
2022-11-04T20:18:51.877Z,96907.50
2022-11-04T20:21:19.209Z,96917.75
2022-11-04T20:23:45.762Z,96878.97
2022-11-04T20:26:20.249Z,96909.13
2022-11-04T20:28:47.351Z,96928.84
2022-11-04T20:31:21.736Z,96929.69
2022-11-04T20:33:48.362Z,96936.50
2022-11-04T20:36:15.725Z,96939.09
2022-11-04T20:38:42.383Z,96842.44
2022-11-04T20:41:11.782Z,96941.63
2022-11-04T20:43:38.270Z,96948.47
2022-11-04T20:46:09.561Z,96952.75
2022-11-04T20:48:36.926Z,96955.31
2022-11-04T20:51:11.198Z,96957.00
2022-11-04T20:53:38.076Z,96950.06
2022-11-04T20:56:06.545Z,96959.53
2022-11-04T20:58:34.822Z,96966.41
2022-11-04T21:01:02.420Z,96964.69
2022-11-04T21:03:29.279Z,96971.50
2022-11-04T21:05:56.446Z,96980.03
2022-11-04T21:08:23.585Z,96982.59
2022-11-04T21:10:51.044Z,96983.47
2022-11-04T21:13:17.508Z,96988.56
2022-11-04T21:15:44.568Z,96981.63
2022-11-04T21:18:12.845Z,96984.19
2022-11-04T21:20:39.825Z,96996.28
2022-11-04T21:23:06.630Z,96991.03
2022-11-04T21:25:45.301Z,97004.81
2022-11-04T21:28:12.495Z,97007.34
2022-11-04T21:30:41.194Z,97005.59
2022-11-04T21:33:07.709Z,97019.34
2022-11-04T21:35:35.317Z,97017.59
2022-11-04T21:38:01.989Z,97017.59
2022-11-04T21:40:28.604Z,97022.72
2022-11-04T21:42:55.094Z,97027.03
2022-11-04T21:45:21.575Z,97020.97
2022-11-04T21:47:48.061Z,97015.84
2022-11-04T21:50:18.067Z,97023.59
2022-11-04T21:52:44.937Z,97014.19
2022-11-04T21:55:11.510Z,97009.06
2022-11-04T21:57:38.230Z,96997.03
2022-11-04T22:00:09.287Z,97005.53
2022-11-04T22:02:43.089Z,97014.19
2022-11-04T22:05:13.675Z,97018.44
2022-11-04T22:07:59.003Z,97019.31
2022-11-04T22:10:25.890Z,97024.44
2022-11-04T22:12:52.406Z,97014.16
2022-11-04T22:15:39.284Z,97012.47
2022-11-04T22:18:06.357Z,97009.91
2022-11-04T22:20:34.606Z,97014.19
2022-11-04T22:23:01.103Z,97007.31
2022-11-04T22:25:27.595Z,97003.84
2022-11-04T22:27:54.127Z,97009.88
2022-11-04T22:30:20.641Z,97005.63
2022-11-04T22:32:47.147Z,97006.41
2022-11-04T22:35:13.657Z,97019.28
2022-11-04T22:37:40.160Z,97035.47
2022-11-04T22:40:07.425Z,97008.09
2022-11-04T22:42:33.956Z,97023.56
2022-11-04T22:45:00.482Z,97016.59
2022-11-04T22:47:27.444Z,97008.06
2022-11-04T22:49:53.971Z,97021.84
2022-11-04T22:52:20.469Z,97015.78
2022-11-04T22:54:46.973Z,97019.28
2022-11-04T22:57:13.434Z,97017.53
2022-11-04T22:59:39.931Z,97017.53
2022-11-04T23:02:06.521Z,97009.03
2022-11-04T23:04:33.234Z,96999.53
2022-11-04T23:06:59.736Z,97013.31
2022-11-04T23:09:26.230Z,97010.72
2022-11-04T23:12:10.955Z,97014.16
2022-11-04T23:14:40.071Z,97011.50
2022-11-04T23:17:38.744Z,97005.47
2022-11-04T23:20:10.894Z,97016.63
2022-11-04T23:22:55.942Z,97026.09
2022-11-04T23:25:22.614Z,97025.22
2022-11-04T23:28:08.766Z,97025.16
2022-11-04T23:30:41.948Z,97030.34
2022-11-04T23:33:12.728Z,97026.91
2022-11-04T23:36:01.890Z,97023.44
2022-11-04T23:38:31.593Z,97043.13
2022-11-04T23:41:21.637Z,97040.53
2022-11-04T23:43:48.146Z,97047.38
2022-11-04T23:46:37.944Z,97046.50
2022-11-04T23:49:28.652Z,97053.31
2022-11-04T23:52:13.667Z,97060.19
2022-11-04T23:54:58.670Z,97061.88
2022-11-04T23:57:44.031Z,97062.69
